Time;durP1;ratioP1;P1;durP2;ratioP2;P2;SDS_P1;SDS_P2;PMS_P1;PMS_P2;Temp;Humidity;BMP_temperature;BMP_pressure;BME280_temperature;BME280_humidity;BME280_pressure;Samples;Min_cycle;Max_cycle;Signal;HPM_P1;HPM_P2
2023/02/21 02:14:02;;;;;;;;;;;;;;;;;;5051295;28;20390;-65
2023/02/21 02:16:28;;;;;;;;;;;;;;;;;;5051891;28;19928;-65
2023/02/21 02:18:53;;;;;;;;;;;;;;;;;;5023087;28;19948;-65
2023/02/21 02:21:19;;;;;;;;;;;;;;;;;;5053907;28;19925;-65
2023/02/21 02:23:45;;;;;;;;;;;;;;;;;;5067159;28;19920;-65
2023/02/21 02:26:11;;;;;;;;;;;;;;;;;;5045168;28;19920;-65
2023/02/21 02:28:37;;;;;;;;;;;;;;;;;;5069532;28;19935;-65
2023/02/21 02:31:03;;;;;;;;;;;;;;;;;;5061974;28;20023;-65
2023/02/21 02:33:29;;;;;;;;;;;;;;;;;;5053341;28;20047;-65
2023/02/21 02:35:55;;;;;;;;;;;;;;;;;;5058916;28;19921;-65
2023/02/21 02:38:21;;;;;;;;;;;;;;;;;;5048462;28;19925;-65
2023/02/21 02:40:47;;;;;;;;;;;;;;;;;;5065124;28;19920;-65
2023/02/21 02:43:13;;;;;;;;;;;;;;;;;;5058093;28;20274;-65
2023/02/21 02:45:39;;;;;;;;;;;;;;;;;;5058496;28;19938;-65
2023/02/21 02:48:05;;;;;;;;;;;;;;;;;;5059170;28;19925;-65
2023/02/21 02:50:31;;;;;;;;;;;;;;;;;;5049111;28;20441;-65
2023/02/21 02:52:57;;;;;;;;;;;;;;;;;;5039602;28;19928;-65
2023/02/21 02:55:23;;;;;;;;;;;;;;;;;;5073581;28;20336;-65
2023/02/21 02:57:50;;;;;;;;;;;;;;;;;;5041858;28;19921;-65
2023/02/21 03:00:16;;;;;;;;;;;;;;;;;;5055692;28;20370;-65
2023/02/21 03:02:42;;;;;;;;;;;;;;;;;;5054812;28;19924;-65
2023/02/21 03:05:08;;;;;;;;;;;;;;;;;;5057784;28;19924;-65
2023/02/21 03:07:34;;;;;;;;;;;;;;;;;;5030936;28;20464;-66
2023/02/21 03:10:00;;;;;;;;;;;;;;;;;;5043520;28;19920;-66
2023/02/21 03:12:26;;;;;;;;;;;;;;;;;;5053046;28;19966;-66
2023/02/21 03:14:52;;;;;;;;;;;;;;;;;;5035866;28;20019;-65
2023/02/21 03:17:18;;;;;;;;;;;;;;;;;;5059483;28;19921;-65
2023/02/21 03:19:44;;;;;;;;;;;;;;;;;;5031593;28;20355;-65
2023/02/21 03:22:10;;;;;;;;;;;;;;;;;;5030352;28;19987;-65
2023/02/21 03:24:35;;;;;;;;;;;;;;;;;;5030602;28;19987;-64
2023/02/21 03:27:01;;;;;;;;;;;;;;;;;;5057763;28;19929;-65
2023/02/21 03:29:27;;;;;;;;;;;;;;;;;;5056776;28;19920;-64
2023/02/21 03:31:53;;;;;;;;;;;;;;;;;;5059733;28;20000;-65
2023/02/21 03:34:19;;;;;;;;;;;;;;;;;;5057743;28;19963;-65
2023/02/21 03:36:45;;;;;;;;;;;;;;;;;;5029439;28;19929;-65
2023/02/21 03:39:11;;;;;;;;;;;;;;;;;;5053468;28;19975;-65
2023/02/21 03:41:37;;;;;;;;;;;;;;;;;;5054231;28;20309;-66
2023/02/21 03:44:03;;;;;;;;;;;;;;;;;;5072150;28;19921;-66
2023/02/21 03:46:29;;;;;;;;;;;;;;;;;;5043135;28;19931;-66
2023/02/21 03:48:54;;;;;;;;;;;;;;;;;;5053356;28;19928;-66
2023/02/21 03:51:20;;;;;;;;;;;;;;;;;;5059820;28;19921;-65
2023/02/21 03:53:46;;;;;;;;;;;;;;;;;;5073220;28;20281;-65
2023/02/21 03:56:12;;;;;;;;;;;;;;;;;;5068856;28;19925;-65
2023/02/21 03:58:38;;;;;;;;;;;;;;;;;;5035800;28;19921;-64
2023/02/21 04:01:04;;;;;;;;;;;;;;;;;;5053833;28;20021;-65
2023/02/21 04:03:30;;;;;;;;;;;;;;;;;;5036237;28;19921;-66
2023/02/21 04:05:56;;;;;;;;;;;;;;;;;;5034598;28;19962;-65
2023/02/21 04:08:22;;;;;;;;;;;;;;;;;;5035505;28;19939;-65
2023/02/21 04:10:48;;;;;;;;;;;;;;;;;;5053392;28;19927;-65
2023/02/21 04:13:13;;;;;;;;;;;;;;;;;;5053743;28;19921;-65
2023/02/21 04:15:39;;;;;;;;;;;;;;;;;;5053873;28;19920;-65
2023/02/21 04:18:05;;;;;;;;;;;;;;;;;;5055821;28;20413;-65
2023/02/21 04:20:31;;;;;;;;;;;;;;;;;;5055353;28;19946;-65
2023/02/21 04:22:57;;;;;;;;;;;;;;;;;;5073456;28;19920;-65
2023/02/21 04:25:23;;;;;;;;;;;;;;;;;;5061932;28;20015;-65
2023/02/21 04:27:49;;;;;;;;;;;;;;;;;;5053468;28;19971;-65
2023/02/21 04:30:15;;;;;;;;;;;;;;;;;;5053062;28;19920;-65
2023/02/21 04:32:41;;;;;;;;;;;;;;;;;;5035318;28;19925;-65
2023/02/21 04:35:07;;;;;;;;;;;;;;;;;;5053156;28;19921;-65
2023/02/21 04:37:33;;;;;;;;;;;;;;;;;;5052606;28;19921;-65
2023/02/21 04:39:59;;;;;;;;;;;;;;;;;;5051405;28;19921;-65
2023/02/21 04:42:25;;;;;;;;;;;;;;;;;;5034876;28;20282;-65
2023/02/21 04:44:50;;;;;;;;;;;;;;;;;;5034039;28;20023;-65
2023/02/21 04:47:16;;;;;;;;;;;;;;;;;;5013558;28;20031;-65
2023/02/21 04:49:42;;;;;;;;;;;;;;;;;;5041921;28;19928;-65
2023/02/21 04:52:08;;;;;;;;;;;;;;;;;;5048582;28;19964;-65
2023/02/21 04:54:34;;;;;;;;;;;;;;;;;;5022843;28;19977;-65
2023/02/21 04:57:00;;;;;;;;;;;;;;;;;;5033043;28;20019;-65
2023/02/21 04:59:26;;;;;;;;;;;;;;;;;;5051782;28;19921;-65
2023/02/21 05:01:52;;;;;;;;;;;;;;;;;;5037513;28;19932;-65
2023/02/21 05:04:18;;;;;;;;;;;;;;;;;;5051022;28;19947;-65
2023/02/21 05:06:44;;;;;;;;;;;;;;;;;;5040634;28;19921;-65
2023/02/21 05:09:10;;;;;;;;;;;;;;;;;;5032973;28;19932;-65
2023/02/21 05:11:36;;;;;;;;;;;;;;;;;;5066505;28;19920;-65
2023/02/21 05:14:01;;;;;;;;;;;;;;;;;;5054406;28;19960;-65
2023/02/21 05:16:27;;;;;;;;;;;;;;;;;;5060310;28;19947;-65
2023/02/21 05:18:53;;;;;;;;;;;;;;;;;;5034521;28;19973;-65
2023/02/21 05:21:19;;;;;;;;;;;;;;;;;;5052282;28;19928;-65
2023/02/21 05:23:54;;;;;;;;;;;;;;;;;;5034523;28;20401;-65
2023/02/21 05:26:20;;;;;;;;;;;;;;;;;;5052318;28;19924;-65
2023/02/21 05:28:46;;;;;;;;;;;;;;;;;;5056898;28;19928;-65
2023/02/21 05:31:12;;;;;;;;;;;;;;;;;;5072448;28;19954;-65
2023/02/21 05:33:38;;;;;;;;;;;;;;;;;;5040812;28;19964;-66
2023/02/21 05:36:04;;;;;;;;;;;;;;;;;;5052163;28;20277;-65
2023/02/21 05:38:29;;;;;;;;;;;;;;;;;;5051972;28;19926;-65
2023/02/21 05:40:55;;;;;;;;;;;;;;;;;;5050651;28;20280;-65
2023/02/21 05:43:21;;;;;;;;;;;;;;;;;;5052292;28;19921;-65
2023/02/21 05:45:47;;;;;;;;;;;;;;;;;;5034787;28;19932;-65
2023/02/21 05:48:13;;;;;;;;;;;;;;;;;;5039886;28;20007;-65
2023/02/21 05:50:39;;;;;;;;;;;;;;;;;;5058489;28;19921;-65
2023/02/21 05:53:05;;;;;;;;;;;;;;;;;;5049637;28;19943;-65
2023/02/21 05:55:31;;;;;;;;;;;;;;;;;;5043078;28;19925;-65
2023/02/21 05:57:57;;;;;;;;;;;;;;;;;;5032173;28;20055;-65
2023/02/21 06:00:23;;;;;;;;;;;;;;;;;;5031110;28;20471;-65
2023/02/21 06:02:49;;;;;;;;;;;;;;;;;;5030546;28;20528;-65
2023/02/21 06:05:15;;;;;;;;;;;;;;;;;;5032310;28;20256;-65
2023/02/21 06:07:41;;;;;;;;;;;;;;;;;;5046158;28;19925;-66
2023/02/21 06:10:07;;;;;;;;;;;;;;;;;;5034235;28;19924;-65
2023/02/21 06:12:33;;;;;;;;;;;;;;;;;;5031478;28;20019;-65
2023/02/21 06:14:59;;;;;;;;;;;;;;;;;;5048979;28;19931;-65
2023/02/21 06:17:25;;;;;;;;;;;;;;;;;;5051619;28;20263;-65
2023/02/21 06:19:51;;;;;;;;;;;;;;;;;;5055589;28;19928;-65
2023/02/21 06:22:17;;;;;;;;;;;;;;;;;;5055667;28;19928;-66
2023/02/21 06:24:43;;;;;;;;;;;;;;;;;;5055348;28;20341;-65
2023/02/21 06:27:09;;;;;;;;;;;;;;;;;;5055878;28;19932;-66
2023/02/21 06:29:35;;;;;;;;;;;;;;;;;;5055345;28;20236;-65
2023/02/21 06:32:00;;;;;;;;;;;;;;;;;;5055785;28;20016;-65
2023/02/21 06:34:26;;;;;;;;;;;;;;;;;;5053971;28;19925;-65
2023/02/21 06:36:52;;;;;;;;;;;;;;;;;;5055470;28;19974;-66
2023/02/21 06:39:18;;;;;;;;;;;;;;;;;;5053935;28;19925;-65
2023/02/21 06:41:44;;;;;;;;;;;;;;;;;;5051664;28;19987;-65
2023/02/21 06:44:10;;;;;;;;;;;;;;;;;;5053785;28;19928;-65
2023/02/21 06:46:36;;;;;;;;;;;;;;;;;;5055024;28;19928;-65
2023/02/21 06:49:02;;;;;;;;;;;;;;;;;;5053152;28;19936;-65
2023/02/21 06:51:28;;;;;;;;;;;;;;;;;;5055410;28;20007;-65
2023/02/21 06:53:54;;;;;;;;;;;;;;;;;;5054300;28;20392;-65
2023/02/21 06:56:20;;;;;;;;;;;;;;;;;;5054900;28;19921;-65
2023/02/21 06:58:46;;;;;;;;;;;;;;;;;;5054726;28;20305;-65
2023/02/21 07:01:12;;;;;;;;;;;;;;;;;;5055076;28;19924;-65
2023/02/21 07:03:38;;;;;;;;;;;;;;;;;;5054831;28;19970;-65
2023/02/21 07:06:04;;;;;;;;;;;;;;;;;;5054976;28;20211;-65
2023/02/21 07:08:29;;;;;;;;;;;;;;;;;;5053372;28;20012;-66
2023/02/21 07:10:55;;;;;;;;;;;;;;;;;;5054650;28;19920;-65
2023/02/21 07:13:21;;;;;;;;;;;;;;;;;;5054381;28;19931;-65
2023/02/21 07:15:47;;;;;;;;;;;;;;;;;;5054150;28;19920;-65
2023/02/21 07:18:13;;;;;;;;;;;;;;;;;;5053793;28;20549;-65
2023/02/21 07:20:39;;;;;;;;;;;;;;;;;;5053464;28;19921;-65
2023/02/21 07:23:05;;;;;;;;;;;;;;;;;;5054067;28;19920;-65
2023/02/21 07:25:31;;;;;;;;;;;;;;;;;;5053794;28;19927;-65
2023/02/21 07:27:56;;;;;;;;;;;;;;;;;;5054487;28;19924;-65
2023/02/21 07:30:23;;;;;;;;;;;;;;;;;;5054394;28;19931;-65
2023/02/21 07:32:48;;;;;;;;;;;;;;;;;;5054039;28;19921;-65
2023/02/21 07:35:14;;;;;;;;;;;;;;;;;;5051767;28;19928;-64
2023/02/21 07:37:40;;;;;;;;;;;;;;;;;;5052507;28;19947;-64
2023/02/21 07:40:06;;;;;;;;;;;;;;;;;;5054223;28;20313;-65
2023/02/21 07:42:32;;;;;;;;;;;;;;;;;;5051978;28;19928;-65
2023/02/21 07:44:58;;;;;;;;;;;;;;;;;;5053904;28;19924;-65
2023/02/21 07:47:24;;;;;;;;;;;;;;;;;;5052055;28;20302;-65
2023/02/21 07:49:50;;;;;;;;;;;;;;;;;;5038963;28;20004;-65
2023/02/21 07:52:16;;;;;;;;;;;;;;;;;;5019169;28;19922;-65
2023/02/21 07:54:42;;;;;;;;;;;;;;;;;;5014026;28;19932;-65
2023/02/21 07:57:08;;;;;;;;;;;;;;;;;;5012750;28;20295;-65
2023/02/21 07:59:34;;;;;;;;;;;;;;;;;;5014138;28;19928;-65
2023/02/21 08:02:01;;;;;;;;;;;;;;;;;;5014041;28;19971;-65
2023/02/21 08:04:27;;;;;;;;;;;;;;;;;;5085302;22;19935;-66
2023/02/21 08:06:53;;;;;;;;;;;;;;;;;;5073629;28;19924;-66
2023/02/21 08:09:18;;;;;;;;;;;;;;;;;;5092419;28;19935;-66
2023/02/21 08:11:44;;;;;;;;;;;;;;;;;;5091126;28;19924;-66
2023/02/21 08:14:10;;;;;;;;;;;;;;;;;;5092532;28;19971;-66
2023/02/21 08:16:36;;;;;;;;;;;;;;;;;;5092415;28;19973;-66
2023/02/21 08:19:04;;;;;;;;;;;;;;;;;;5093148;28;19920;-66
2023/02/21 08:21:30;;;;;;;;;;;;;;;;;;5092239;28;20385;-66
2023/02/21 08:23:56;;;;;;;;;;;;;;;;;;5092936;28;19920;-66
2023/02/21 08:26:21;;;;;;;;;;;;;;;;;;5074406;28;19931;-66
2023/02/21 08:28:47;;;;;;;;;;;;;;;;;;5086262;28;20023;-66
2023/02/21 08:31:13;;;;;;;;;;;;;;;;;;5091661;28;19930;-66
2023/02/21 08:33:40;;;;;;;;;;;;;;;;;;5073970;28;19931;-66
2023/02/21 08:36:06;;;;;;;;;;;;;;;;;;5073527;28;19924;-66
2023/02/21 08:38:32;;;;;;;;;;;;;;;;;;5090539;28;19967;-67
2023/02/21 08:40:57;;;;;;;;;;;;;;;;;;5091397;28;19986;-66
2023/02/21 08:43:23;;;;;;;;;;;;;;;;;;5084847;28;19928;-66
2023/02/21 08:45:49;;;;;;;;;;;;;;;;;;5091835;28;19931;-66
2023/02/21 08:48:15;;;;;;;;;;;;;;;;;;5091778;28;19924;-66
2023/02/21 08:50:41;;;;;;;;;;;;;;;;;;5091516;28;19920;-66
2023/02/21 08:53:07;;;;;;;;;;;;;;;;;;5073162;28;19931;-66
2023/02/21 08:55:33;;;;;;;;;;;;;;;;;;5091692;28;19927;-66
2023/02/21 08:57:59;;;;;;;;;;;;;;;;;;5091470;28;20027;-66
2023/02/21 09:00:27;;;;;;;;;;;;;;;;;;5091169;28;19920;-66
2023/02/21 09:02:53;;;;;;;;;;;;;;;;;;5057995;28;20385;-66
2023/02/21 09:05:19;;;;;;;;;;;;;;;;;;5087643;28;19970;-66
2023/02/21 09:07:45;;;;;;;;;;;;;;;;;;5090594;28;19924;-66
2023/02/21 09:10:11;;;;;;;;;;;;;;;;;;5087990;28;20353;-66
2023/02/21 09:12:37;;;;;;;;;;;;;;;;;;5091156;28;19963;-66
2023/02/21 09:15:03;;;;;;;;;;;;;;;;;;5090988;28;19928;-67
2023/02/21 09:17:32;;;;;;;;;;;;;;;;;;5090946;28;20644;-66
2023/02/21 09:19:58;;;;;;;;;;;;;;;;;;5085969;28;19929;-66
2023/02/21 09:22:24;;;;;;;;;;;;;;;;;;5091032;28;19924;-66
2023/02/21 09:24:50;;;;;;;;;;;;;;;;;;5091460;28;19924;-66
2023/02/21 09:27:16;;;;;;;;;;;;;;;;;;5090909;28;20007;-66
2023/02/21 09:29:42;;;;;;;;;;;;;;;;;;5091372;28;19926;-66
2023/02/21 09:32:08;;;;;;;;;;;;;;;;;;5090455;28;19924;-66
2023/02/21 09:34:34;;;;;;;;;;;;;;;;;;5091227;28;19927;-67
2023/02/21 09:37:00;;;;;;;;;;;;;;;;;;5091064;28;19924;-66
2023/02/21 09:39:26;;;;;;;;;;;;;;;;;;5091158;28;19927;-66
2023/02/21 09:41:54;;;;;;;;;;;;;;;;;;5064412;28;19925;-66
2023/02/21 09:44:20;;;;;;;;;;;;;;;;;;5083590;28;20010;-66
2023/02/21 09:46:46;;;;;;;;;;;;;;;;;;5090961;28;20007;-66
2023/02/21 09:49:12;;;;;;;;;;;;;;;;;;5090810;28;19928;-66
2023/02/21 09:51:40;;;;;;;;;;;;;;;;;;5092949;28;19931;-66
2023/02/21 09:54:07;;;;;;;;;;;;;;;;;;5095033;28;20060;-66
2023/02/21 09:56:33;;;;;;;;;;;;;;;;;;5075946;28;19924;-66
2023/02/21 09:58:59;;;;;;;;;;;;;;;;;;5095194;28;19927;-66
2023/02/21 10:01:25;;;;;;;;;;;;;;;;;;5094848;28;19923;-66
2023/02/21 10:03:51;;;;;;;;;;;;;;;;;;5076201;28;19990;-66
2023/02/21 10:06:17;;;;;;;;;;;;;;;;;;5075821;28;19920;-66
2023/02/21 10:08:43;;;;;;;;;;;;;;;;;;5076880;28;20005;-66
2023/02/21 10:11:08;;;;;;;;;;;;;;;;;;5076317;28;20304;-66
2023/02/21 10:13:34;;;;;;;;;;;;;;;;;;5094463;28;19965;-66
2023/02/21 10:16:00;;;;;;;;;;;;;;;;;;5094988;28;19968;-66
2023/02/21 10:18:26;;;;;;;;;;;;;;;;;;5094339;28;20394;-66
2023/02/21 10:20:53;;;;;;;;;;;;;;;;;;5081903;28;19930;-66
2023/02/21 10:23:19;;;;;;;;;;;;;;;;;;5093515;28;19920;-66
2023/02/21 10:25:45;;;;;;;;;;;;;;;;;;5094658;28;20419;-66
2023/02/21 10:28:11;;;;;;;;;;;;;;;;;;5094485;28;19928;-67
2023/02/21 10:30:39;;;;;;;;;;;;;;;;;;5095036;28;19994;-66
2023/02/21 10:33:05;;;;;;;;;;;;;;;;;;5095273;28;20323;-66
2023/02/21 10:35:31;;;;;;;;;;;;;;;;;;5095165;28;19964;-66
2023/02/21 10:37:57;;;;;;;;;;;;;;;;;;5095130;28;19956;-66
2023/02/21 10:40:23;;;;;;;;;;;;;;;;;;5094562;28;20389;-66
2023/02/21 10:42:50;;;;;;;;;;;;;;;;;;5078239;28;19926;-66
2023/02/21 10:45:16;;;;;;;;;;;;;;;;;;5086184;28;19950;-66
2023/02/21 10:47:41;;;;;;;;;;;;;;;;;;5093897;28;19932;-66
2023/02/21 10:50:08;;;;;;;;;;;;;;;;;;5093726;28;19920;-66
2023/02/21 10:52:34;;;;;;;;;;;;;;;;;;5075323;28;19924;-66
2023/02/21 10:54:59;;;;;;;;;;;;;;;;;;5058679;28;19958;-66
2023/02/21 10:57:25;;;;;;;;;;;;;;;;;;5093568;28;19943;-66
2023/02/21 10:59:51;;;;;;;;;;;;;;;;;;5075332;28;20297;-66
2023/02/21 11:02:17;;;;;;;;;;;;;;;;;;5092627;28;19924;-66
2023/02/21 11:04:43;;;;;;;;;;;;;;;;;;5093402;28;19939;-66
2023/02/21 11:07:09;;;;;;;;;;;;;;;;;;5093161;28;20018;-66
2023/02/21 11:09:35;;;;;;;;;;;;;;;;;;5093565;28;19920;-66
2023/02/21 11:12:01;;;;;;;;;;;;;;;;;;5093420;28;20289;-66
2023/02/21 11:14:27;;;;;;;;;;;;;;;;;;5093388;28;19931;-66
2023/02/21 11:16:53;;;;;;;;;;;;;;;;;;5093423;28;20289;-66
2023/02/21 11:19:19;;;;;;;;;;;;;;;;;;5078086;28;19924;-66
2023/02/21 11:21:45;;;;;;;;;;;;;;;;;;5074014;28;19931;-66
2023/02/21 11:24:11;;;;;;;;;;;;;;;;;;5055788;28;20386;-66
2023/02/21 11:26:37;;;;;;;;;;;;;;;;;;5074155;28;20345;-66
2023/02/21 11:29:03;;;;;;;;;;;;;;;;;;5074089;28;19928;-66
2023/02/21 11:31:29;;;;;;;;;;;;;;;;;;5093834;28;19924;-67
2023/02/21 11:33:55;;;;;;;;;;;;;;;;;;5075618;28;19935;-67
2023/02/21 11:36:21;;;;;;;;;;;;;;;;;;5075868;28;19920;-67
2023/02/21 11:38:47;;;;;;;;;;;;;;;;;;5093156;28;19973;-67
2023/02/21 11:41:12;;;;;;;;;;;;;;;;;;5073015;28;19947;-67
2023/02/21 11:43:38;;;;;;;;;;;;;;;;;;5073633;28;20355;-67
2023/02/21 11:46:04;;;;;;;;;;;;;;;;;;5084674;28;19927;-67
2023/02/21 11:48:31;;;;;;;;;;;;;;;;;;5092840;28;20010;-67
2023/02/21 11:50:57;;;;;;;;;;;;;;;;;;5093597;28;19977;-67
2023/02/21 11:53:23;;;;;;;;;;;;;;;;;;5093380;28;19928;-67
2023/02/21 11:55:49;;;;;;;;;;;;;;;;;;5093849;28;19920;-67
2023/02/21 11:58:15;;;;;;;;;;;;;;;;;;5093554;28;19924;-67
2023/02/21 12:00:41;;;;;;;;;;;;;;;;;;5074917;28;20285;-67
2023/02/21 12:03:07;;;;;;;;;;;;;;;;;;5092906;28;20010;-67
2023/02/21 12:05:33;;;;;;;;;;;;;;;;;;5093327;28;19932;-66
2023/02/21 12:07:59;;;;;;;;;;;;;;;;;;5093244;28;20050;-66
2023/02/21 12:10:25;;;;;;;;;;;;;;;;;;5093356;28;20386;-66
2023/02/21 12:12:51;;;;;;;;;;;;;;;;;;5092830;28;19927;-66
2023/02/21 12:15:17;;;;;;;;;;;;;;;;;;5092542;28;20276;-66
2023/02/21 12:17:43;;;;;;;;;;;;;;;;;;5079307;28;19924;-66
2023/02/21 12:20:09;;;;;;;;;;;;;;;;;;5055600;28;19950;-66
2023/02/21 12:22:35;;;;;;;;;;;;;;;;;;5074905;28;19928;-66
2023/02/21 12:25:01;;;;;;;;;;;;;;;;;;5093046;28;19923;-66
2023/02/21 12:27:27;;;;;;;;;;;;;;;;;;5093024;28;20047;-66
2023/02/21 12:29:53;;;;;;;;;;;;;;;;;;5093047;28;20383;-66
2023/02/21 12:32:22;;;;;;;;;;;;;;;;;;5074528;28;19928;-66
2023/02/21 12:34:47;;;;;;;;;;;;;;;;;;5092655;28;19924;-67
2023/02/21 12:37:13;;;;;;;;;;;;;;;;;;5072395;28;19928;-67
2023/02/21 12:39:39;;;;;;;;;;;;;;;;;;5090588;28;19927;-67
2023/02/21 12:42:05;;;;;;;;;;;;;;;;;;5053398;28;19924;-67
2023/02/21 12:44:31;;;;;;;;;;;;;;;;;;5071158;28;19947;-67
2023/02/21 12:46:57;;;;;;;;;;;;;;;;;;5081225;28;19920;-67
2023/02/21 12:49:23;;;;;;;;;;;;;;;;;;5055245;28;19976;-67
2023/02/21 12:51:49;;;;;;;;;;;;;;;;;;5091753;28;20440;-67
2023/02/21 12:54:15;;;;;;;;;;;;;;;;;;5091059;28;19924;-67
2023/02/21 12:56:41;;;;;;;;;;;;;;;;;;5091744;28;20349;-67
2023/02/21 12:59:07;;;;;;;;;;;;;;;;;;5091084;28;19920;-67
2023/02/21 13:01:33;;;;;;;;;;;;;;;;;;5072837;28;19989;-67
2023/02/21 13:03:58;;;;;;;;;;;;;;;;;;5091052;28;19972;-67
2023/02/21 13:06:24;;;;;;;;;;;;;;;;;;5091034;28;19989;-67
2023/02/21 13:08:50;;;;;;;;;;;;;;;;;;5091324;28;20281;-67
2023/02/21 13:11:17;;;;;;;;;;;;;;;;;;5090916;28;20358;-67
2023/02/21 13:13:43;;;;;;;;;;;;;;;;;;5090938;28;20289;-67
2023/02/21 13:16:10;;;;;;;;;;;;;;;;;;5083812;28;19930;-67
2023/02/21 13:18:36;;;;;;;;;;;;;;;;;;5077876;28;19920;-67
2023/02/21 13:21:01;;;;;;;;;;;;;;;;;;5066933;28;22003;-66
2023/02/21 13:26:12;;;;;;;;;;;;;;;;;;5075864;28;20011;-66
2023/02/21 13:28:38;;;;;;;;;;;;;;;;;;5090620;28;20006;-66
2023/02/21 13:31:04;;;;;;;;;;;;;;;;;;5055779;28;19927;-66
2023/02/21 13:33:30;;;;;;;;;;;;;;;;;;5089710;28;20051;-66
2023/02/21 13:35:56;;;;;;;;;;;;;;;;;;5085857;28;19931;-66
2023/02/21 13:38:22;;;;;;;;;;;;;;;;;;5077336;28;20031;-66
2023/02/21 13:40:49;;;;;;;;;;;;;;;;;;5070725;28;19971;-66
2023/02/21 13:43:15;;;;;;;;;;;;;;;;;;5073678;28;19926;-66
2023/02/21 13:45:42;;;;;;;;;;;;;;;;;;5052320;28;19920;-66
2023/02/21 13:48:08;;;;;;;;;;;;;;;;;;5083169;28;20416;-66
2023/02/21 13:50:37;;;;;;;;;;;;;;;;;;5086828;28;19966;-66
2023/02/21 13:53:02;;;;;;;;;;;;;;;;;;5088844;28;19970;-66
2023/02/21 13:55:30;;;;;;;;;;;;;;;;;;5088112;28;22317;-66
2023/02/21 13:57:56;;;;;;;;;;;;;;;;;;5088458;28;19924;-66
2023/02/21 14:00:22;;;;;;;;;;;;;;;;;;5067956;28;19931;-66
2023/02/21 14:02:48;;;;;;;;;;;;;;;;;;5089143;28;19924;-66
2023/02/21 14:05:14;;;;;;;;;;;;;;;;;;5087292;28;19927;-66
2023/02/21 14:07:40;;;;;;;;;;;;;;;;;;5089192;28;19938;-66
2023/02/21 14:10:06;;;;;;;;;;;;;;;;;;5088753;28;19932;-66
2023/02/21 14:12:32;;;;;;;;;;;;;;;;;;5081108;28;19920;-66
2023/02/21 14:14:57;;;;;;;;;;;;;;;;;;5078983;28;19920;-67
2023/02/21 14:17:23;;;;;;;;;;;;;;;;;;5080513;28;20306;-66
2023/02/21 14:19:50;;;;;;;;;;;;;;;;;;5063683;28;19951;-66
2023/02/21 14:22:16;;;;;;;;;;;;;;;;;;5064017;28;19927;-66
2023/02/21 14:24:42;;;;;;;;;;;;;;;;;;5086578;28;19924;-66
2023/02/21 14:27:08;;;;;;;;;;;;;;;;;;5084360;28;19924;-66
2023/02/21 14:29:34;;;;;;;;;;;;;;;;;;5085944;28;19927;-66
2023/02/21 14:32:01;;;;;;;;;;;;;;;;;;5082798;28;20019;-66
2023/02/21 14:34:26;;;;;;;;;;;;;;;;;;5084593;28;19928;-66
2023/02/21 14:36:52;;;;;;;;;;;;;;;;;;5080845;28;19934;-66
2023/02/21 14:39:18;;;;;;;;;;;;;;;;;;5072867;28;19954;-66
2023/02/21 14:41:44;;;;;;;;;;;;;;;;;;5084840;28;20655;-66
2023/02/21 14:44:10;;;;;;;;;;;;;;;;;;5074835;28;19924;-66
2023/02/21 14:46:36;;;;;;;;;;;;;;;;;;5072158;28;20365;-66
2023/02/21 14:49:02;;;;;;;;;;;;;;;;;;5090815;28;19924;-66
2023/02/21 14:51:28;;;;;;;;;;;;;;;;;;5089462;28;20501;-65
2023/02/21 14:53:54;;;;;;;;;;;;;;;;;;5086514;28;19935;-66
2023/02/21 14:56:19;;;;;;;;;;;;;;;;;;5085846;28;19923;-65
2023/02/21 14:58:45;;;;;;;;;;;;;;;;;;5086393;28;20038;-65
2023/02/21 15:01:11;;;;;;;;;;;;;;;;;;5090617;28;20277;-66
2023/02/21 15:03:37;;;;;;;;;;;;;;;;;;5063768;28;19935;-66
2023/02/21 15:06:03;;;;;;;;;;;;;;;;;;5090457;28;19924;-66
2023/02/21 15:08:29;;;;;;;;;;;;;;;;;;5073212;28;19951;-66
2023/02/21 15:10:56;;;;;;;;;;;;;;;;;;5089687;28;19924;-66
2023/02/21 15:13:22;;;;;;;;;;;;;;;;;;5092746;28;19963;-66
2023/02/21 15:15:48;;;;;;;;;;;;;;;;;;5089343;28;19959;-65
2023/02/21 15:18:14;;;;;;;;;;;;;;;;;;5090564;28;19931;-65
2023/02/21 15:20:40;;;;;;;;;;;;;;;;;;5092172;28;19924;-65
2023/02/21 15:23:06;;;;;;;;;;;;;;;;;;5092841;28;20377;-66
2023/02/21 15:25:32;;;;;;;;;;;;;;;;;;5072198;28;19932;-66
2023/02/21 15:27:58;;;;;;;;;;;;;;;;;;5093282;28;19928;-66
2023/02/21 15:30:24;;;;;;;;;;;;;;;;;;5093619;28;20377;-66
2023/02/21 15:32:49;;;;;;;;;;;;;;;;;;5081795;28;20444;-66
2023/02/21 15:35:15;;;;;;;;;;;;;;;;;;5073825;28;20449;-66
2023/02/21 15:37:41;;;;;;;;;;;;;;;;;;5058807;28;19924;-66
2023/02/21 15:40:11;;;;;;;;;;;;;;;;;;5093608;28;20022;-66
2023/02/21 15:42:36;;;;;;;;;;;;;;;;;;5074904;28;19931;-66
2023/02/21 15:45:02;;;;;;;;;;;;;;;;;;5055420;28;19924;-66
2023/02/21 15:47:29;;;;;;;;;;;;;;;;;;5068409;28;19928;-66
2023/02/21 15:49:55;;;;;;;;;;;;;;;;;;5065047;28;19924;-66
2023/02/21 15:52:21;;;;;;;;;;;;;;;;;;5092054;28;19923;-66
2023/02/21 15:54:47;;;;;;;;;;;;;;;;;;5093112;28;19927;-66
2023/02/21 15:57:13;;;;;;;;;;;;;;;;;;5074896;28;20010;-66
2023/02/21 15:59:38;;;;;;;;;;;;;;;;;;5093494;28;19928;-66
2023/02/21 16:02:06;;;;;;;;;;;;;;;;;;5079511;28;19990;-66
2023/02/21 16:04:31;;;;;;;;;;;;;;;;;;5064487;28;19925;-66
2023/02/21 16:06:57;;;;;;;;;;;;;;;;;;5088939;28;19926;-66
2023/02/21 16:09:24;;;;;;;;;;;;;;;;;;5080338;28;20423;-66
2023/02/21 16:11:50;;;;;;;;;;;;;;;;;;5089544;28;19920;-66
2023/02/21 16:14:16;;;;;;;;;;;;;;;;;;5091082;28;19973;-66
2023/02/21 16:16:42;;;;;;;;;;;;;;;;;;5089336;28;19931;-66
2023/02/21 16:19:08;;;;;;;;;;;;;;;;;;5089969;28;20393;-66
2023/02/21 16:21:34;;;;;;;;;;;;;;;;;;5068967;28;19930;-66
2023/02/21 16:24:00;;;;;;;;;;;;;;;;;;5091433;28;19927;-65
2023/02/21 16:26:27;;;;;;;;;;;;;;;;;;5073275;28;19951;-65
2023/02/21 16:28:53;;;;;;;;;;;;;;;;;;5067736;28;20372;-65
2023/02/21 16:31:19;;;;;;;;;;;;;;;;;;5086073;28;19924;-65
2023/02/21 16:33:45;;;;;;;;;;;;;;;;;;5090208;28;19973;-65
2023/02/21 16:36:11;;;;;;;;;;;;;;;;;;5093000;28;19927;-65
2023/02/21 16:38:37;;;;;;;;;;;;;;;;;;5092471;28;20518;-65
2023/02/21 16:41:03;;;;;;;;;;;;;;;;;;5092022;28;19928;-65
2023/02/21 16:43:29;;;;;;;;;;;;;;;;;;5090532;28;19942;-65
2023/02/21 16:45:55;;;;;;;;;;;;;;;;;;5092904;28;19966;-66
2023/02/21 16:48:22;;;;;;;;;;;;;;;;;;5112709;22;20073;-65
2023/02/21 16:50:48;;;;;;;;;;;;;;;;;;5089527;28;19920;-65
2023/02/21 16:53:14;;;;;;;;;;;;;;;;;;5091041;28;20461;-65
2023/02/21 16:55:41;;;;;;;;;;;;;;;;;;5091465;28;20543;-65
2023/02/21 16:58:07;;;;;;;;;;;;;;;;;;5073226;28;19920;-65
2023/02/21 17:00:33;;;;;;;;;;;;;;;;;;5086498;28;19928;-65
2023/02/21 17:02:58;;;;;;;;;;;;;;;;;;5091561;28;20345;-65
2023/02/21 17:05:24;;;;;;;;;;;;;;;;;;5089752;28;20007;-65
2023/02/21 17:07:51;;;;;;;;;;;;;;;;;;5091402;28;20034;-65
2023/02/21 17:10:17;;;;;;;;;;;;;;;;;;5091772;28;19966;-65
2023/02/21 17:12:43;;;;;;;;;;;;;;;;;;5091765;28;19959;-65
2023/02/21 17:15:09;;;;;;;;;;;;;;;;;;5074085;28;20015;-66
2023/02/21 17:17:35;;;;;;;;;;;;;;;;;;5094369;28;19931;-66
2023/02/21 17:20:01;;;;;;;;;;;;;;;;;;5091817;28;19920;-65
2023/02/21 17:22:27;;;;;;;;;;;;;;;;;;5091427;28;20407;-65
2023/02/21 17:24:54;;;;;;;;;;;;;;;;;;5091146;28;19924;-65
2023/02/21 17:27:20;;;;;;;;;;;;;;;;;;5098003;28;19927;-65
2023/02/21 17:29:46;;;;;;;;;;;;;;;;;;5091272;28;19920;-65
2023/02/21 17:32:11;;;;;;;;;;;;;;;;;;5076525;28;19961;-65
2023/02/21 17:34:37;;;;;;;;;;;;;;;;;;5094414;28;19924;-66
2023/02/21 17:37:03;;;;;;;;;;;;;;;;;;5088022;28;20004;-66
2023/02/21 17:39:29;;;;;;;;;;;;;;;;;;5088690;28;20011;-66
2023/02/21 17:41:55;;;;;;;;;;;;;;;;;;5081987;28;19921;-66
2023/02/21 17:44:21;;;;;;;;;;;;;;;;;;5093201;28;20284;-66
2023/02/21 17:46:47;;;;;;;;;;;;;;;;;;5089500;28;19920;-66
2023/02/21 17:49:13;;;;;;;;;;;;;;;;;;5074237;28;19932;-66
2023/02/21 17:51:39;;;;;;;;;;;;;;;;;;5069349;28;19927;-66
2023/02/21 17:54:04;;;;;;;;;;;;;;;;;;5051828;28;20336;-66
2023/02/21 17:56:30;;;;;;;;;;;;;;;;;;5070675;28;19927;-66
2023/02/21 17:58:57;;;;;;;;;;;;;;;;;;5070939;28;19927;-66
2023/02/21 18:01:24;;;;;;;;;;;;;;;;;;5081886;28;19950;-66
2023/02/21 18:03:50;;;;;;;;;;;;;;;;;;5067887;28;19920;-66
2023/02/21 18:06:15;;;;;;;;;;;;;;;;;;5051143;28;19925;-66
2023/02/21 18:08:43;;;;;;;;;;;;;;;;;;5071178;28;19974;-66
2023/02/21 18:11:10;;;;;;;;;;;;;;;;;;5069218;28;19925;-66
2023/02/21 18:13:35;;;;;;;;;;;;;;;;;;5073938;28;19955;-66
2023/02/21 18:16:04;;;;;;;;;;;;;;;;;;5059156;28;19986;-66
2023/02/21 18:18:30;;;;;;;;;;;;;;;;;;5063901;28;19924;-66
2023/02/21 18:20:58;;;;;;;;;;;;;;;;;;5069749;28;19924;-66
2023/02/21 18:23:24;;;;;;;;;;;;;;;;;;5065874;28;20281;-66
2023/02/21 18:25:50;;;;;;;;;;;;;;;;;;5072028;28;19977;-66
2023/02/21 18:28:16;;;;;;;;;;;;;;;;;;5073895;28;19936;-66
2023/02/21 18:30:41;;;;;;;;;;;;;;;;;;5071335;28;19932;-66
2023/02/21 18:33:07;;;;;;;;;;;;;;;;;;5055190;28;19981;-66
2023/02/21 18:35:33;;;;;;;;;;;;;;;;;;5068207;28;20295;-66
2023/02/21 18:37:59;;;;;;;;;;;;;;;;;;5068267;28;19920;-66
2023/02/21 18:40:32;;;;;;;;;;;;;;;;;;5072036;28;20391;-66
2023/02/21 18:42:59;;;;;;;;;;;;;;;;;;5066086;28;19920;-66
2023/02/21 18:45:25;;;;;;;;;;;;;;;;;;5067424;28;19924;-66
2023/02/21 18:47:51;;;;;;;;;;;;;;;;;;5073631;28;19939;-66
2023/02/21 18:50:17;;;;;;;;;;;;;;;;;;5072249;28;20361;-66
2023/02/21 18:52:43;;;;;;;;;;;;;;;;;;5090117;28;19977;-66